Pagina principale
METAR-TAF:

METAR-TAF

Aeroporti :

Sion, Svizzera

latitudine: 46-13N, longitudine: 007-20E, altezza: 482 m

Osservazione

Il bollettino è stato emesso 35 minuti fa, alle 10:50 UTC
Vento 3 kt da direzioni variabili
Temperature 29°C
Umidità 31%
Pressione 1023 hPa
Visibilità 10 km o più
Nubi sparse ad un'altezza di 10000 ft

METAR: LSGS 191050Z VRB03KT 9999 SCT100 29/10 Q1023

Ora: 13:25 (11:25 UTC)

Previsione

Il bollettino è stato emesso 3 ore e 0 minuti fa, alle 08:25 UTC
Previsione valida dal 19 alle 09 UTC al 19 alle 18 UTC
Vento 2 kt da direzioni variabili
Visibilità 10 km o più
Poco nuvoloso ad un'altezza di 8000 ft
Temporaneamente
dal 19 alle 12 UTC al 19 alle 18 UTC
Vento 15 kt da ovest con raffiche fino a 25 kt
Poco nuvoloso ad un'altezza di 6000 ft, Cumulonembo.
temporale, pioggia

TAF: LSGS 190825Z 1909/1918 VRB02KT 9999 FEW080 TEMPO 1912/1918 26015G25KT TSRA FEW060CB

Osservazioni e previsioni meteorologiche di più di 4000 aeroporti (messaggi METAR e TAF).

Le stazioni disponibili sono rappresentate dai dischi gialli e rossi sulla carta.

Puntare il mouse per vedere il nome della stazione.

Clicca sopra per visualizzare le osservazioni e previsioni meteorologiche.

Per cambiare la mappa : fare clic sui pulsanti verdi con una croce nera per ingrandire, il pulsante verde con un trattino per diminuire, o sulla freccia verde per le mappe adiacenti.


METAR-TAF: